createdAt,value
2023-06-02T00:00:50.277Z,23.74
2023-06-02T00:03:16.844Z,23.72
2023-06-02T00:05:43.515Z,23.69
2023-06-02T00:08:10.051Z,23.52
2023-06-02T00:10:36.664Z,23.57
2023-06-02T00:13:03.209Z,23.51
2023-06-02T00:15:29.795Z,23.44
2023-06-02T00:17:56.387Z,23.43
2023-06-02T00:20:22.964Z,23.42
2023-06-02T00:22:49.502Z,23.45
2023-06-02T00:25:16.101Z,23.45
2023-06-02T00:27:42.679Z,23.46
2023-06-02T00:30:09.656Z,23.22
2023-06-02T00:32:36.253Z,23.23
2023-06-02T00:35:02.899Z,23.23
2023-06-02T00:37:29.433Z,23.23
2023-06-02T00:39:55.940Z,23.19
2023-06-02T00:42:22.597Z,22.97
2023-06-02T00:44:49.076Z,22.87
2023-06-02T00:47:15.698Z,22.78
2023-06-02T00:49:43.241Z,22.71
2023-06-02T00:52:10.454Z,22.73
2023-06-02T00:54:37.050Z,22.78
2023-06-02T00:57:03.635Z,22.79
2023-06-02T00:59:31.437Z,22.87
2023-06-02T01:01:57.992Z,22.68
2023-06-02T01:04:25.335Z,22.33
2023-06-02T01:06:52.024Z,21.95
2023-06-02T01:09:20.485Z,22.08
2023-06-02T01:11:47.221Z,22.20
2023-06-02T01:14:14.255Z,22.32
2023-06-02T01:16:41.336Z,22.42
2023-06-02T01:19:09.966Z,22.47
2023-06-02T01:21:39.524Z,22.47
2023-06-02T01:24:06.569Z,22.52
2023-06-02T01:26:33.411Z,22.50
2023-06-02T01:28:59.947Z,22.52
2023-06-02T01:31:41.244Z,22.59
2023-06-02T01:34:28.029Z,22.56
2023-06-02T01:36:58.763Z,22.28
2023-06-02T01:39:28.407Z,22.14
2023-06-02T01:41:56.454Z,22.09
2023-06-02T01:44:24.581Z,22.14
2023-06-02T01:46:51.521Z,22.19
2023-06-02T01:49:18.548Z,22.19
2023-06-02T01:51:46.349Z,22.27
2023-06-02T01:54:13.233Z,22.31
2023-06-02T01:56:39.826Z,22.12
2023-06-02T01:59:06.360Z,22.09
2023-06-02T02:01:32.986Z,22.13
2023-06-02T02:03:59.586Z,22.18
2023-06-02T02:06:27.085Z,22.30
2023-06-02T02:08:53.641Z,22.30
2023-06-02T02:11:20.139Z,22.18
2023-06-02T02:13:46.708Z,22.25
2023-06-02T02:16:13.297Z,22.24
2023-06-02T02:18:39.831Z,22.30
2023-06-02T02:21:06.329Z,22.30
2023-06-02T02:23:32.841Z,22.34
2023-06-02T02:25:59.324Z,22.36
2023-06-02T02:28:27.864Z,22.38
2023-06-02T02:30:54.347Z,22.34
2023-06-02T02:33:20.873Z,22.33
2023-06-02T02:35:47.420Z,22.31
2023-06-02T02:38:13.948Z,22.24
2023-06-02T02:40:40.540Z,22.18
2023-06-02T02:43:07.040Z,22.05
2023-06-02T02:45:33.626Z,21.96
2023-06-02T02:48:00.390Z,22.01
2023-06-02T02:50:27.005Z,22.02
2023-06-02T02:52:53.533Z,21.88
2023-06-02T02:55:20.044Z,21.82
2023-06-02T02:57:46.764Z,21.89
2023-06-02T03:00:13.602Z,21.92
2023-06-02T03:02:40.483Z,21.91
2023-06-02T03:05:07.967Z,21.80
2023-06-02T03:07:34.503Z,21.85
2023-06-02T03:10:01.530Z,21.80
2023-06-02T03:12:28.072Z,21.74
2023-06-02T03:14:54.587Z,21.68
2023-06-02T03:17:21.149Z,21.57
2023-06-02T03:19:47.710Z,21.49
2023-06-02T03:22:14.211Z,21.60
2023-06-02T03:24:40.773Z,21.56
2023-06-02T03:27:07.494Z,21.49
2023-06-02T03:29:34.026Z,21.53
2023-06-02T03:32:00.538Z,21.54
2023-06-02T03:34:27.073Z,21.44
2023-06-02T03:36:53.646Z,21.43
2023-06-02T03:39:20.162Z,21.48
2023-06-02T03:41:46.744Z,21.49
2023-06-02T03:44:14.404Z,21.43
2023-06-02T03:46:40.971Z,21.24
2023-06-02T03:49:07.589Z,21.32
2023-06-02T03:51:34.119Z,21.24
2023-06-02T03:54:00.670Z,21.27
2023-06-02T03:56:27.201Z,21.27
2023-06-02T03:58:53.732Z,21.24
2023-06-02T04:01:21.814Z,21.31
2023-06-02T04:03:48.353Z,21.31
2023-06-02T04:06:14.988Z,21.39
2023-06-02T04:08:41.531Z,21.48
2023-06-02T04:11:08.509Z,21.39
2023-06-02T04:13:35.444Z,21.29
2023-06-02T04:16:02.916Z,21.32
2023-06-02T04:18:31.313Z,21.28
2023-06-02T04:20:58.998Z,21.37
2023-06-02T04:23:25.531Z,21.33
2023-06-02T04:25:52.033Z,21.35
2023-06-02T04:28:18.574Z,21.39
2023-06-02T04:30:45.169Z,21.43
2023-06-02T04:33:11.714Z,21.47
2023-06-02T04:35:38.241Z,21.51
2023-06-02T04:38:04.769Z,21.47
2023-06-02T04:40:31.321Z,21.46
2023-06-02T04:42:58.046Z,21.61
2023-06-02T04:45:24.901Z,21.63
2023-06-02T04:47:51.441Z,21.72
2023-06-02T04:50:17.969Z,21.76
2023-06-02T04:52:44.561Z,21.72
2023-06-02T04:55:12.569Z,21.77
2023-06-02T04:57:39.186Z,21.91
2023-06-02T05:00:07.818Z,22.00
2023-06-02T05:02:34.424Z,22.06
2023-06-02T05:05:00.988Z,22.12
2023-06-02T05:07:27.510Z,22.14
2023-06-02T05:09:54.098Z,22.13
2023-06-02T05:12:20.639Z,22.21
2023-06-02T05:14:47.184Z,22.25
2023-06-02T05:17:13.880Z,22.30
2023-06-02T05:19:47.165Z,22.33
2023-06-02T05:22:13.844Z,22.42
2023-06-02T05:24:40.394Z,22.48
2023-06-02T05:27:07.093Z,22.56
2023-06-02T05:29:33.773Z,22.68
2023-06-02T05:32:00.370Z,22.78
2023-06-02T05:34:26.939Z,22.82
2023-06-02T05:36:53.480Z,22.92
2023-06-02T05:39:20.073Z,23.05
2023-06-02T05:41:46.596Z,23.11
2023-06-02T05:44:13.128Z,23.20
2023-06-02T05:46:41.123Z,23.27
2023-06-02T05:49:07.662Z,23.43
2023-06-02T05:51:34.203Z,23.50
2023-06-02T05:54:00.719Z,23.57
2023-06-02T05:56:27.242Z,23.64
2023-06-02T05:58:53.906Z,23.75
2023-06-02T06:01:20.526Z,23.83
2023-06-02T06:03:47.317Z,23.90
2023-06-02T06:06:13.936Z,23.78
2023-06-02T06:08:43.350Z,23.76
2023-06-02T06:11:09.922Z,23.92
2023-06-02T06:13:36.496Z,23.97
2023-06-02T06:16:04.839Z,23.97
2023-06-02T06:18:31.587Z,23.93
2023-06-02T06:20:58.106Z,24.00
2023-06-02T06:23:24.778Z,23.79
2023-06-02T06:25:51.294Z,24.04
2023-06-02T06:28:17.834Z,24.19
2023-06-02T06:30:44.375Z,24.31
2023-06-02T06:33:10.912Z,24.19
2023-06-02T06:35:37.585Z,24.36
2023-06-02T06:38:04.759Z,24.40
2023-06-02T06:40:32.662Z,24.32
2023-06-02T06:43:02.975Z,23.90
2023-06-02T06:45:34.822Z,24.09
2023-06-02T06:48:01.464Z,24.12
2023-06-02T06:50:28.029Z,24.02
2023-06-02T06:52:54.568Z,24.05
2023-06-02T06:55:21.104Z,23.98
2023-06-02T06:57:47.740Z,23.77
2023-06-02T07:00:14.703Z,23.96
2023-06-02T07:02:41.260Z,24.04
2023-06-02T07:05:08.084Z,24.07
2023-06-02T07:07:34.697Z,23.50
2023-06-02T07:10:02.046Z,23.85
2023-06-02T07:12:28.798Z,23.84
2023-06-02T07:14:55.453Z,23.96
2023-06-02T07:17:22.038Z,24.04
2023-06-02T07:19:48.725Z,24.20
2023-06-02T07:22:15.392Z,24.12
2023-06-02T07:24:43.704Z,24.25
2023-06-02T07:27:11.117Z,23.92
2023-06-02T07:29:37.712Z,23.98
2023-06-02T07:32:04.713Z,24.23
2023-06-02T07:34:31.413Z,24.32
2023-06-02T07:36:58.051Z,24.42
2023-06-02T07:39:24.617Z,24.43
2023-06-02T07:41:51.216Z,24.34
2023-06-02T07:44:17.804Z,24.57
2023-06-02T07:46:44.548Z,24.47
2023-06-02T07:49:11.291Z,24.40
2023-06-02T07:51:38.656Z,24.43
2023-06-02T07:54:05.509Z,24.56
2023-06-02T07:56:32.578Z,24.70
2023-06-02T07:58:59.149Z,24.83
2023-06-02T08:01:25.802Z,24.76
2023-06-02T08:03:52.640Z,24.94
2023-06-02T08:06:19.596Z,24.89
2023-06-02T08:08:46.188Z,24.87
2023-06-02T08:11:14.187Z,24.97
2023-06-02T08:13:40.847Z,25.20
2023-06-02T08:18:37.406Z,25.06
2023-06-02T08:21:04.367Z,25.02
2023-06-02T08:23:31.717Z,25.25
2023-06-02T08:25:58.262Z,25.18
2023-06-02T08:28:25.188Z,25.06
2023-06-02T08:30:51.891Z,25.24
2023-06-02T08:33:18.708Z,25.05
2023-06-02T08:35:46.194Z,25.36
2023-06-02T08:38:12.899Z,25.27
2023-06-02T08:40:40.419Z,25.50
2023-06-02T08:43:08.330Z,25.57
2023-06-02T08:45:34.932Z,25.51
2023-06-02T08:48:06.321Z,25.36
2023-06-02T08:50:37.054Z,25.14
2023-06-02T08:53:06.163Z,25.37
2023-06-02T08:55:33.566Z,25.44
2023-06-02T08:58:00.169Z,25.44
2023-06-02T09:00:26.729Z,25.32
2023-06-02T09:02:54.460Z,25.40
2023-06-02T09:05:21.270Z,25.32
2023-06-02T09:07:48.219Z,25.41
2023-06-02T09:10:31.509Z,25.19
2023-06-02T09:12:58.524Z,25.01
2023-06-02T09:15:25.422Z,24.95
2023-06-02T09:17:52.832Z,25.13
2023-06-02T09:20:31.441Z,25.24
2023-06-02T09:22:59.516Z,25.46
2023-06-02T09:25:31.401Z,25.38
2023-06-02T09:27:59.575Z,25.41
2023-06-02T09:30:27.289Z,25.42
2023-06-02T09:32:58.792Z,25.55
2023-06-02T09:35:40.576Z,25.66
2023-06-02T09:38:11.587Z,25.73
2023-06-02T09:40:39.608Z,25.59
2023-06-02T09:43:12.153Z,25.78
2023-06-02T09:45:47.673Z,25.99
2023-06-02T09:48:22.027Z,25.92
2023-06-02T09:50:48.713Z,25.95
2023-06-02T09:53:15.449Z,26.07
2023-06-02T09:55:41.993Z,25.80
2023-06-02T09:58:09.601Z,26.10
2023-06-02T10:00:36.180Z,26.20
2023-06-02T10:03:05.993Z,26.19
2023-06-02T10:05:33.798Z,26.09
2023-06-02T10:08:22.140Z,26.35
2023-06-02T10:11:14.278Z,26.29
2023-06-02T10:13:57.348Z,26.17
2023-06-02T10:16:56.324Z,26.20
2023-06-02T10:19:36.630Z,26.28
2023-06-02T10:22:22.840Z,26.24
2023-06-02T10:25:00.060Z,26.46
2023-06-02T10:27:38.013Z,26.72
2023-06-02T10:30:05.326Z,26.54
2023-06-02T10:32:44.144Z,26.47
2023-06-02T10:35:13.614Z,26.40
2023-06-02T10:37:44.233Z,26.47
2023-06-02T10:40:12.411Z,26.39
2023-06-02T10:42:59.587Z,26.59
2023-06-02T10:45:29.251Z,26.53
2023-06-02T10:47:55.955Z,26.38
2023-06-02T10:50:22.680Z,26.41
2023-06-02T10:53:01.519Z,26.44
2023-06-02T10:55:28.231Z,26.72
2023-06-02T10:57:59.445Z,26.69
2023-06-02T11:00:28.942Z,26.61
2023-06-02T11:02:55.873Z,26.80
2023-06-02T11:05:30.646Z,27.03
2023-06-02T11:08:12.647Z,26.97
2023-06-02T11:10:46.406Z,27.03
2023-06-02T11:13:15.172Z,27.13
2023-06-02T11:15:56.854Z,26.77
2023-06-02T11:18:23.387Z,27.12
2023-06-02T11:20:50.632Z,27.14
2023-06-02T11:23:18.620Z,27.29
2023-06-02T11:25:46.049Z,27.41
2023-06-02T11:28:16.946Z,27.69
2023-06-02T11:30:43.635Z,27.44
2023-06-02T11:33:10.584Z,27.47
2023-06-02T11:35:37.434Z,27.14
2023-06-02T11:38:08.265Z,27.37
2023-06-02T11:40:36.867Z,27.54
2023-06-02T11:43:03.752Z,27.51
2023-06-02T11:45:31.334Z,27.60
2023-06-02T11:48:06.291Z,27.71
2023-06-02T11:50:33.120Z,27.82
2023-06-02T11:53:00.149Z,27.44
2023-06-02T11:55:31.374Z,27.80
2023-06-02T11:58:17.671Z,28.10
2023-06-02T12:00:44.278Z,28.05
2023-06-02T12:03:10.921Z,28.37
2023-06-02T12:05:37.777Z,28.42
2023-06-02T12:08:12.000Z,28.56
2023-06-02T12:10:40.301Z,28.56
2023-06-02T12:13:07.046Z,28.54
2023-06-02T12:15:34.183Z,28.35
2023-06-02T12:18:09.477Z,28.63
2023-06-02T12:20:41.479Z,28.81
2023-06-02T12:23:09.011Z,29.02
2023-06-02T12:25:36.119Z,28.93
2023-06-02T12:28:16.588Z,28.64
2023-06-02T12:30:48.099Z,28.82
2023-06-02T12:33:14.843Z,29.16
2023-06-02T12:35:41.995Z,28.92
2023-06-02T12:38:09.500Z,28.96
2023-06-02T12:40:39.413Z,29.18
2023-06-02T12:43:06.127Z,29.15
2023-06-02T12:45:32.677Z,29.49
2023-06-02T12:48:00.277Z,29.60
2023-06-02T12:50:27.095Z,30.01
2023-06-02T12:52:53.601Z,30.28
2023-06-02T12:55:20.340Z,29.71
2023-06-02T12:57:47.573Z,29.10
2023-06-02T13:00:15.924Z,29.32
2023-06-02T13:02:42.656Z,29.61
2023-06-02T13:05:10.272Z,29.23
2023-06-02T13:07:40.655Z,29.90
2023-06-02T13:10:09.718Z,29.66
2023-06-02T13:12:37.204Z,29.91
2023-06-02T13:15:04.577Z,30.04
2023-06-02T13:17:31.131Z,29.79
2023-06-02T13:19:57.667Z,30.48
2023-06-02T13:22:24.660Z,30.98
2023-06-02T13:24:53.840Z,31.47
2023-06-02T13:27:24.641Z,30.62
2023-06-02T13:29:57.561Z,31.81
2023-06-02T13:32:24.208Z,32.13
2023-06-02T13:34:56.291Z,32.95
2023-06-02T13:37:23.973Z,33.55
2023-06-02T13:39:51.648Z,33.81
2023-06-02T13:42:18.267Z,34.44
2023-06-02T13:44:44.916Z,34.56
2023-06-02T13:47:11.458Z,34.61
2023-06-02T13:49:38.022Z,34.19
2023-06-02T13:52:06.179Z,34.13
2023-06-02T13:54:32.740Z,34.25
2023-06-02T13:56:59.244Z,34.28
2023-06-02T13:59:25.803Z,34.51
2023-06-02T14:01:52.426Z,34.82
2023-06-02T14:04:19.032Z,33.49
2023-06-02T14:06:45.554Z,34.12
2023-06-02T14:09:12.083Z,34.82
2023-06-02T14:11:38.630Z,35.50
2023-06-02T14:14:06.764Z,35.93
2023-06-02T14:16:33.378Z,35.95
2023-06-02T14:19:02.124Z,36.51
2023-06-02T14:21:28.997Z,35.96
2023-06-02T14:23:55.870Z,34.63
2023-06-02T14:26:22.872Z,35.40
2023-06-02T14:28:49.500Z,38.13
2023-06-02T14:31:16.160Z,40.06
2023-06-02T14:33:42.706Z,41.43
2023-06-02T14:36:09.857Z,42.58
2023-06-02T14:38:36.539Z,43.66
2023-06-02T14:41:03.282Z,44.43
2023-06-02T14:43:29.969Z,45.23
2023-06-02T14:45:56.605Z,45.59
2023-06-02T14:48:23.567Z,46.39
2023-06-02T14:50:50.201Z,45.36
2023-06-02T14:53:16.769Z,44.31
2023-06-02T14:55:43.405Z,44.66
2023-06-02T14:58:10.051Z,44.74
2023-06-02T15:00:36.674Z,44.12
2023-06-02T15:03:04.146Z,43.94
2023-06-02T15:05:30.848Z,44.55
2023-06-02T15:07:57.391Z,44.18
2023-06-02T15:10:24.607Z,43.80
2023-06-02T15:12:51.128Z,44.09
2023-06-02T15:15:17.660Z,44.03
2023-06-02T15:17:44.309Z,44.27
2023-06-02T15:20:11.293Z,45.01
2023-06-02T15:22:37.942Z,45.44
2023-06-02T15:25:05.086Z,44.67
2023-06-02T15:27:31.753Z,44.90
2023-06-02T15:29:58.295Z,44.07
2023-06-02T15:32:24.980Z,43.81
2023-06-02T15:34:51.583Z,40.50
2023-06-02T15:37:18.166Z,40.61
2023-06-02T15:39:44.752Z,40.63
2023-06-02T15:42:11.537Z,39.30
2023-06-02T15:44:38.208Z,40.84
2023-06-02T15:47:05.151Z,41.41
2023-06-02T15:49:31.662Z,42.94
2023-06-02T15:51:58.186Z,44.03
2023-06-02T15:54:24.757Z,45.06
2023-06-02T15:56:52.574Z,45.68
2023-06-02T15:59:20.099Z,46.38
2023-06-02T16:01:46.674Z,46.97
2023-06-02T16:04:13.309Z,47.65
2023-06-02T16:06:39.907Z,47.76
2023-06-02T16:09:06.458Z,47.70
2023-06-02T16:11:33.236Z,47.09
2023-06-02T16:13:59.833Z,46.10
2023-06-02T16:16:26.721Z,46.87
2023-06-02T16:18:53.439Z,46.96
2023-06-02T16:21:20.468Z,46.51
2023-06-02T16:23:47.696Z,43.66
2023-06-02T16:26:14.764Z,41.38
2023-06-02T16:28:42.326Z,41.64
2023-06-02T16:31:09.370Z,39.12
2023-06-02T16:33:36.446Z,38.99
2023-06-02T16:36:03.877Z,37.57
2023-06-02T16:38:31.302Z,36.53
2023-06-02T16:40:57.974Z,35.79
2023-06-02T16:43:25.153Z,35.46
2023-06-02T16:45:51.829Z,35.64
2023-06-02T16:48:18.437Z,34.62
2023-06-02T16:50:44.973Z,35.13
2023-06-02T16:53:11.525Z,34.01
2023-06-02T16:55:38.044Z,33.61
2023-06-02T16:58:04.584Z,33.71
2023-06-02T17:00:31.183Z,32.96
2023-06-02T17:02:58.002Z,33.36
2023-06-02T17:05:24.893Z,33.02
2023-06-02T17:07:51.440Z,33.65
2023-06-02T17:10:19.168Z,34.18
2023-06-02T17:12:45.902Z,34.09
2023-06-02T17:15:12.503Z,33.89
2023-06-02T17:17:39.225Z,33.60
2023-06-02T17:20:06.325Z,33.93
2023-06-02T17:22:32.838Z,33.96
2023-06-02T17:24:59.442Z,33.42
2023-06-02T17:27:26.036Z,33.46
2023-06-02T17:29:52.565Z,33.13
2023-06-02T17:32:19.135Z,33.87
2023-06-02T17:34:45.945Z,33.77
2023-06-02T17:37:13.001Z,33.76
2023-06-02T17:39:39.677Z,34.17
2023-06-02T17:42:06.988Z,33.83
2023-06-02T17:44:33.629Z,33.44
2023-06-02T17:47:00.218Z,33.07
2023-06-02T17:49:26.872Z,33.52
2023-06-02T17:51:53.484Z,33.43
2023-06-02T17:54:20.106Z,33.54
2023-06-02T17:56:46.703Z,33.40
2023-06-02T17:59:13.245Z,33.17
2023-06-02T18:01:39.820Z,33.12
2023-06-02T18:04:06.448Z,33.16
2023-06-02T18:06:33.020Z,32.62
2023-06-02T18:08:59.541Z,32.76
2023-06-02T18:11:28.183Z,32.57
2023-06-02T18:13:56.160Z,32.25
2023-06-02T18:16:22.839Z,32.25
2023-06-02T18:18:49.350Z,31.80
2023-06-02T18:21:15.906Z,31.53
2023-06-02T18:23:42.446Z,31.11
2023-06-02T18:26:08.942Z,30.47
2023-06-02T18:28:35.489Z,30.37
2023-06-02T18:31:02.799Z,30.53
2023-06-02T18:33:30.000Z,29.90
2023-06-02T18:35:56.947Z,29.88
2023-06-02T18:38:23.485Z,29.27
2023-06-02T18:40:50.050Z,28.84
2023-06-02T18:43:16.662Z,28.56
2023-06-02T18:45:43.302Z,28.22
2023-06-02T18:48:09.906Z,28.03
2023-06-02T18:50:36.609Z,28.14
2023-06-02T18:53:03.141Z,27.91
2023-06-02T18:55:29.682Z,27.77
2023-06-02T18:57:56.259Z,27.67
2023-06-02T19:00:22.814Z,27.72
2023-06-02T19:02:49.654Z,27.67
2023-06-02T19:05:16.357Z,27.65
2023-06-02T19:07:45.802Z,27.37
2023-06-02T19:10:12.345Z,27.36
2023-06-02T19:12:41.305Z,27.09
2023-06-02T19:15:08.069Z,26.92
2023-06-02T19:17:34.720Z,26.25
2023-06-02T19:20:01.298Z,26.20
2023-06-02T19:22:27.888Z,26.51
2023-06-02T19:24:54.478Z,26.33
2023-06-02T19:27:21.144Z,26.39
2023-06-02T19:29:47.662Z,26.45
2023-06-02T19:32:14.224Z,26.50
2023-06-02T19:34:40.764Z,26.80
2023-06-02T19:37:07.544Z,26.77
2023-06-02T19:39:34.144Z,27.27
2023-06-02T19:42:00.658Z,27.45
2023-06-02T19:44:27.274Z,27.23
2023-06-02T19:46:53.881Z,27.52
2023-06-02T19:49:22.667Z,27.81
2023-06-02T19:51:49.207Z,27.91
2023-06-02T19:54:15.747Z,27.75
2023-06-02T19:56:42.759Z,27.99
2023-06-02T19:59:09.394Z,28.17
2023-06-02T20:01:35.962Z,28.16
2023-06-02T20:04:02.582Z,28.39
2023-06-02T20:06:29.254Z,28.27
2023-06-02T20:08:55.828Z,28.17
2023-06-02T20:11:22.356Z,28.30
2023-06-02T20:13:49.033Z,28.30
2023-06-02T20:16:15.747Z,27.66
2023-06-02T20:18:50.254Z,27.90
2023-06-02T20:21:21.206Z,27.73
2023-06-02T20:23:48.190Z,27.74
2023-06-02T20:26:16.390Z,27.72
2023-06-02T20:28:43.392Z,27.68
2023-06-02T20:31:13.325Z,27.74
2023-06-02T20:33:40.684Z,27.84
2023-06-02T20:36:07.714Z,27.95
2023-06-02T20:38:34.486Z,27.97
2023-06-02T20:41:01.113Z,27.89
2023-06-02T20:43:27.703Z,27.56
2023-06-02T20:45:54.309Z,27.53
2023-06-02T20:48:20.930Z,27.08
2023-06-02T20:50:47.543Z,26.78
2023-06-02T20:53:14.089Z,26.80
2023-06-02T20:55:40.695Z,26.89
2023-06-02T20:58:07.340Z,26.85
2023-06-02T21:00:33.918Z,26.54
2023-06-02T21:03:00.661Z,26.60
2023-06-02T21:05:27.364Z,26.66
2023-06-02T21:07:54.066Z,26.29
2023-06-02T21:10:23.041Z,26.05
2023-06-02T21:12:49.707Z,26.39
2023-06-02T21:15:16.336Z,26.43
2023-06-02T21:17:42.979Z,26.58
2023-06-02T21:20:09.857Z,26.56
2023-06-02T21:22:36.466Z,26.64
2023-06-02T21:25:03.386Z,26.53
2023-06-02T21:27:29.945Z,26.20
2023-06-02T21:29:56.604Z,26.01
2023-06-02T21:32:23.176Z,26.18
2023-06-02T21:34:51.210Z,25.78
2023-06-02T21:37:17.888Z,25.54
2023-06-02T21:39:44.480Z,25.47
2023-06-02T21:42:11.078Z,25.30
2023-06-02T21:44:37.654Z,24.95
2023-06-02T21:47:04.412Z,24.75
2023-06-02T21:49:31.630Z,24.59
2023-06-02T21:51:58.436Z,24.41
2023-06-02T21:54:25.030Z,24.45
2023-06-02T21:56:51.641Z,24.49
2023-06-02T21:59:18.331Z,24.43
2023-06-02T22:01:45.027Z,24.58
2023-06-02T22:04:11.776Z,24.46
2023-06-02T22:06:38.413Z,24.87
2023-06-02T22:09:04.971Z,24.96
2023-06-02T22:11:31.653Z,25.05
2023-06-02T22:13:58.302Z,25.12
2023-06-02T22:16:24.973Z,25.11
2023-06-02T22:18:51.615Z,24.97
2023-06-02T22:21:25.348Z,24.83
2023-06-02T22:24:14.885Z,24.99
2023-06-02T22:26:51.648Z,25.00
2023-06-02T22:29:18.395Z,24.81
2023-06-02T22:31:45.078Z,25.13
2023-06-02T22:34:11.778Z,25.23
2023-06-02T22:36:38.534Z,25.28
2023-06-02T22:39:05.146Z,25.27
2023-06-02T22:41:31.789Z,24.71
2023-06-02T22:43:58.452Z,24.79
2023-06-02T22:46:25.407Z,24.49
2023-06-02T22:48:52.101Z,24.42
2023-06-02T22:51:18.797Z,24.35
2023-06-02T22:53:45.516Z,23.95
2023-06-02T22:56:15.289Z,23.97
2023-06-02T22:58:41.975Z,23.73
2023-06-02T23:01:08.819Z,24.00
2023-06-02T23:03:35.485Z,24.19
2023-06-02T23:06:02.103Z,23.15
2023-06-02T23:08:28.786Z,23.25
2023-06-02T23:10:55.376Z,23.36
2023-06-02T23:13:21.985Z,23.23
2023-06-02T23:15:48.589Z,23.24
2023-06-02T23:18:16.921Z,23.24
2023-06-02T23:20:45.255Z,23.19
2023-06-02T23:23:11.922Z,23.18
2023-06-02T23:25:38.534Z,23.45
2023-06-02T23:28:05.220Z,23.70
2023-06-02T23:30:31.794Z,23.60
2023-06-02T23:32:58.936Z,23.83
2023-06-02T23:35:25.588Z,23.99
2023-06-02T23:37:52.347Z,23.74
2023-06-02T23:40:18.984Z,23.92
2023-06-02T23:42:45.651Z,23.71
2023-06-02T23:45:12.336Z,24.00
2023-06-02T23:47:39.050Z,24.03
2023-06-02T23:50:06.762Z,24.13
2023-06-02T23:52:33.406Z,24.19
2023-06-02T23:55:00.039Z,24.17
2023-06-02T23:57:26.634Z,23.87
2023-06-02T23:59:53.352Z,24.19
